Time;durP1;ratioP1;P1;durP2;ratioP2;P2;SDS_P1;SDS_P2;PMS_P1;PMS_P2;Temp;Humidity;BMP_temperature;BMP_pressure;BME280_temperature;BME280_humidity;BME280_pressure;Samples;Min_cycle;Max_cycle;Signal;HPM_P1;HPM_P2
2023/09/11 00:01:31;;;;;;;26.85;18.75;;;;;;;21.64;100.00;101314.78;5069243;28;20119;-69
2023/09/11 00:03:57;;;;;;;29.02;23.23;;;;;;;21.67;100.00;101318.88;5069153;28;20369;-69
2023/09/11 00:06:24;;;;;;;25.23;19.55;;;;;;;21.66;100.00;101309.09;5069278;28;20020;-69
2023/09/11 00:08:50;;;;;;;26.58;18.20;;;;;;;21.62;100.00;101307.97;5069083;28;20377;-69
2023/09/11 00:11:15;;;;;;;28.23;21.05;;;;;;;21.49;100.00;101305.72;5069105;28;20040;-69
2023/09/11 00:13:41;;;;;;;27.52;20.58;;;;;;;21.45;100.00;101302.66;5068984;28;20492;-69
2023/09/11 00:16:06;;;;;;;25.08;20.30;;;;;;;21.42;100.00;101298.59;5069116;28;20035;-69
2023/09/11 00:18:31;;;;;;;27.27;20.40;;;;;;;21.39;100.00;101303.72;5069027;28;20032;-70
2023/09/11 00:20:57;;;;;;;28.20;18.92;;;;;;;21.33;100.00;101300.13;5068883;28;20032;-69
2023/09/11 00:23:23;;;;;;;23.65;18.67;;;;;;;21.24;100.00;101294.31;5068952;28;20020;-69
2023/09/11 00:25:48;;;;;;;30.02;20.27;;;;;;;21.18;100.00;101294.53;5067567;28;20056;-69
2023/09/11 00:28:14;;;;;;;27.50;20.90;;;;;;;21.13;100.00;101291.78;5068838;28;20055;-69
2023/09/11 00:30:39;;;;;;;29.27;20.48;;;;;;;21.06;100.00;101291.16;5068798;28;20403;-69
2023/09/11 00:33:05;;;;;;;25.75;20.55;;;;;;;21.08;100.00;101276.25;5068789;28;20055;-69
2023/09/11 00:35:30;;;;;;;27.02;20.23;;;;;;;21.08;100.00;101289.00;5068587;28;20071;-69
2023/09/11 00:37:55;;;;;;;26.63;20.63;;;;;;;21.06;100.00;101283.00;5068593;28;20120;-69
2023/09/11 00:40:21;;;;;;;25.35;20.55;;;;;;;21.08;100.00;101286.28;5067454;28;20025;-69
2023/09/11 00:42:46;;;;;;;26.98;21.50;;;;;;;21.04;100.00;101280.56;5068391;28;20585;-69
2023/09/11 00:45:12;;;;;;;27.55;20.35;;;;;;;21.05;100.00;101286.81;5067627;28;20133;-69
2023/09/11 00:47:42;;;;;;;27.08;22.27;;;;;;;21.07;100.00;101282.78;5068531;28;20028;-69
2023/09/11 00:50:09;;;;;;;30.30;20.55;;;;;;;20.95;100.00;101272.06;5068671;28;20064;-69
2023/09/11 00:52:35;;;;;;;26.15;20.98;;;;;;;20.98;100.00;101285.09;5068173;28;20036;-69
2023/09/11 00:55:02;;;;;;;28.52;20.00;;;;;;;20.93;100.00;101276.09;5066633;28;20396;-69
2023/09/11 00:57:28;;;;;;;25.75;19.92;;;;;;;20.98;100.00;101274.25;5068370;28;20032;-69
2023/09/11 00:59:53;;;;;;;27.70;21.85;;;;;;;21.01;100.00;101279.19;5068402;28;20028;-69
2023/09/11 01:02:20;;;;;;;29.27;21.52;;;;;;;21.16;100.00;101285.81;5067134;28;20037;-69
2023/09/11 01:04:46;;;;;;;28.52;21.38;;;;;;;21.25;100.00;101281.59;5068321;28;20016;-69
2023/09/11 01:07:13;;;;;;;30.65;21.60;;;;;;;21.31;100.00;101288.69;5068405;28;20080;-69
2023/09/11 01:09:39;;;;;;;30.75;21.65;;;;;;;21.34;100.00;101280.03;5068177;28;20508;-69
2023/09/11 01:12:05;;;;;;;26.63;21.83;;;;;;;21.38;100.00;101277.66;5068375;28;20040;-69
2023/09/11 01:14:32;;;;;;;28.85;19.38;;;;;;;21.37;100.00;101273.25;5068312;28;20098;-69
2023/09/11 01:17:15;;;;;;;29.08;20.40;;;;;;;21.40;100.00;101270.06;5068398;28;20107;-69
2023/09/11 01:19:53;;;;;;;28.55;20.48;;;;;;;21.40;100.00;101273.59;5068472;28;20112;-69
2023/09/11 01:22:38;;;;;;;27.40;20.23;;;;;;;21.40;100.00;101268.16;5068199;28;20105;-69
2023/09/11 01:25:36;;;;;;;28.20;18.45;;;;;;;21.37;100.00;101276.78;5067373;28;20099;-69
2023/09/11 01:28:35;;;;;;;25.05;19.60;;;;;;;21.34;100.00;101273.78;5068225;28;20045;-69
2023/09/11 01:31:01;;;;;;;28.45;20.08;;;;;;;21.22;100.00;101274.78;5068259;28;20529;-69
2023/09/11 01:33:26;;;;;;;24.42;18.83;;;;;;;21.10;100.00;101276.84;5068099;28;20036;-69
2023/09/11 01:35:52;;;;;;;27.70;19.65;;;;;;;21.04;100.00;101274.31;5066857;28;20149;-69
2023/09/11 01:38:18;;;;;;;24.10;19.05;;;;;;;21.04;100.00;101283.28;5068324;28;20476;-69
2023/09/11 01:40:45;;;;;;;28.90;18.33;;;;;;;21.07;100.00;101277.34;5067892;28;20487;-69
2023/09/11 01:43:13;;;;;;;26.67;17.98;;;;;;;21.09;100.00;101279.78;5068218;28;20024;-69
2023/09/11 01:45:40;;;;;;;24.30;17.33;;;;;;;21.12;100.00;101282.00;5068524;28;20021;-69
2023/09/11 01:48:08;;;;;;;27.48;19.92;;;;;;;21.17;100.00;101273.91;5067990;28;20060;-69
2023/09/11 01:50:36;;;;;;;26.52;18.42;;;;;;;21.14;100.00;101269.84;5068062;28;20388;-69
2023/09/11 01:53:04;;;;;;;28.48;19.38;;;;;;;21.14;100.00;101263.56;5067804;28;20035;-69
2023/09/11 01:55:31;;;;;;;25.55;18.42;;;;;;;21.18;100.00;101265.50;5067994;28;20050;-69
2023/09/11 01:57:56;;;;;;;24.20;19.10;;;;;;;21.15;100.00;101270.63;5067859;28;20090;-69
2023/09/11 02:00:22;;;;;;;27.52;16.95;;;;;;;21.15;100.00;101270.63;5067990;28;20520;-69
2023/09/11 02:02:51;;;;;;;23.90;16.77;;;;;;;21.07;100.00;101262.97;5066561;28;20480;-69
2023/09/11 02:05:17;;;;;;;22.35;16.17;;;;;;;20.95;100.00;101260.41;5069736;28;20082;-69
2023/09/11 02:07:42;;;;;;;24.98;17.42;;;;;;;20.83;100.00;101262.44;5071547;28;20029;-69
2023/09/11 02:10:09;;;;;;;24.88;17.17;;;;;;;20.81;100.00;101264.59;5070147;28;20036;-69
2023/09/11 02:12:34;;;;;;;22.48;17.20;;;;;;;20.67;100.00;101259.59;5071340;28;20450;-69
2023/09/11 02:14:59;;;;;;;24.70;17.95;;;;;;;20.64;100.00;101260.06;5071216;28;20021;-69
2023/09/11 02:17:25;;;;;;;25.98;16.42;;;;;;;20.60;100.00;101250.81;5071364;28;20059;-69
2023/09/11 02:19:50;;;;;;;24.27;17.63;;;;;;;20.56;100.00;101246.97;5071523;28;20178;-69
2023/09/11 02:22:16;;;;;;;24.80;17.85;;;;;;;20.56;100.00;101258.63;5071298;28;20028;-70
2023/09/11 02:24:41;;;;;;;23.02;17.42;;;;;;;20.48;100.00;101256.34;5071092;28;20073;-70
2023/09/11 02:27:07;;;;;;;25.83;17.40;;;;;;;20.39;100.00;101251.63;5071043;28;20009;-69
2023/09/11 02:29:32;;;;;;;23.63;17.45;;;;;;;20.31;100.00;101248.28;5071234;28;20032;-69
2023/09/11 02:31:57;;;;;;;23.88;16.73;;;;;;;20.23;100.00;101242.50;5069679;28;20086;-69
2023/09/11 02:34:23;;;;;;;22.73;16.33;;;;;;;20.22;100.00;101251.66;5069691;28;20044;-69
2023/09/11 02:36:48;;;;;;;23.90;17.70;;;;;;;20.16;100.00;101248.09;5070925;28;20057;-69
2023/09/11 02:39:14;;;;;;;24.20;17.38;;;;;;;20.09;100.00;101247.44;5070963;28;20029;-69
2023/09/11 02:41:39;;;;;;;22.48;15.25;;;;;;;20.04;100.00;101240.09;5070571;28;20071;-69
2023/09/11 02:44:05;;;;;;;26.23;16.90;;;;;;;19.90;100.00;101233.38;5070901;28;20037;-69
2023/09/11 02:46:30;;;;;;;22.90;17.02;;;;;;;19.90;100.00;101244.22;5070813;28;20406;-69
2023/09/11 02:48:56;;;;;;;22.65;15.57;;;;;;;19.89;100.00;101237.97;5070912;28;20035;-69
2023/09/11 02:51:21;;;;;;;27.65;18.20;;;;;;;19.85;100.00;101238.72;5070844;28;20498;-69
2023/09/11 02:53:46;;;;;;;24.02;17.52;;;;;;;19.83;100.00;101240.84;5070739;28;20032;-69
2023/09/11 02:56:12;;;;;;;26.55;18.17;;;;;;;19.81;100.00;101240.31;5070544;28;20509;-69
2023/09/11 02:58:37;;;;;;;24.50;17.92;;;;;;;19.77;100.00;101233.72;5070537;28;20029;-69
2023/09/11 03:01:05;;;;;;;21.60;16.17;;;;;;;19.79;100.00;101234.31;5070548;28;20578;-69
2023/09/11 03:03:31;;;;;;;24.10;17.08;;;;;;;19.81;100.00;101237.59;5070373;28;20156;-69
2023/09/11 03:05:57;;;;;;;26.70;17.80;;;;;;;19.68;100.00;101236.88;5070510;28;20177;-69
2023/09/11 03:08:23;;;;;;;25.35;16.60;;;;;;;19.67;100.00;101237.91;5070455;28;20033;-69
2023/09/11 03:10:48;;;;;;;24.52;17.75;;;;;;;19.63;100.00;101234.06;5070352;28;20020;-69
2023/09/11 03:13:14;;;;;;;24.08;15.82;;;;;;;19.56;100.00;101229.88;5068780;28;20254;-69
2023/09/11 03:15:39;;;;;;;28.55;16.98;;;;;;;19.52;100.00;101226.84;5070211;28;20102;-69
2023/09/11 03:18:05;;;;;;;24.90;17.60;;;;;;;19.53;100.00;101220.38;5069681;28;20032;-69
2023/09/11 03:20:30;;;;;;;25.27;17.65;;;;;;;19.53;100.00;101216.84;5070509;28;20032;-69
2023/09/11 03:22:56;;;;;;;24.80;17.10;;;;;;;19.58;100.00;101228.56;5070349;28;20029;-69
2023/09/11 03:25:21;;;;;;;23.40;16.38;;;;;;;19.51;100.00;101217.06;5069971;28;20039;-69
2023/09/11 03:27:46;;;;;;;22.58;17.17;;;;;;;19.49;100.00;101213.78;5070050;28;20615;-69
2023/09/11 03:30:12;;;;;;;25.02;18.20;;;;;;;19.46;100.00;101217.00;5069909;28;20048;-69
2023/09/11 03:32:37;;;;;;;25.60;17.35;;;;;;;19.38;100.00;101204.72;5069909;28;20024;-69
2023/09/11 03:35:03;;;;;;;24.05;16.95;;;;;;;19.38;100.00;101206.59;5068492;28;20063;-69
2023/09/11 03:37:28;;;;;;;24.35;15.80;;;;;;;19.36;100.00;101201.44;5068599;28;20510;-69
2023/09/11 03:39:55;;;;;;;24.70;17.35;;;;;;;19.40;100.00;101199.06;5069796;28;20028;-69
2023/09/11 03:42:21;;;;;;;24.10;16.98;;;;;;;19.40;100.00;101197.16;5068203;28;20512;-69
2023/09/11 03:44:46;;;;;;;27.08;18.70;;;;;;;19.43;100.00;101209.38;5069670;28;20048;-69
2023/09/11 03:47:11;;;;;;;30.92;20.48;;;;;;;19.48;100.00;101206.75;5069553;28;20368;-69
2023/09/11 03:49:38;;;;;;;26.88;20.08;;;;;;;19.51;100.00;101205.44;5069625;28;20395;-69
2023/09/11 03:52:03;;;;;;;25.00;19.60;;;;;;;19.53;100.00;101195.19;5069564;28;20392;-69
2023/09/11 03:54:29;;;;;;;27.50;18.83;;;;;;;19.55;100.00;101193.06;5069672;28;20029;-69
2023/09/11 03:56:54;;;;;;;29.48;19.77;;;;;;;19.58;100.00;101187.16;5069392;28;20083;-69
2023/09/11 03:59:19;;;;;;;23.25;17.20;;;;;;;19.50;100.00;101183.00;5069442;28;20036;-69
2023/09/11 04:01:45;;;;;;;24.92;17.45;;;;;;;19.41;100.00;101169.06;5069211;28;20483;-69
2023/09/11 04:04:10;;;;;;;25.23;18.17;;;;;;;19.50;100.00;101174.88;5069300;28;20041;-70
2023/09/11 04:06:35;;;;;;;36.15;22.10;;;;;;;19.53;100.00;101173.56;5069148;28;20023;-69
2023/09/11 04:09:01;;;;;;;27.80;20.65;;;;;;;19.54;100.00;101170.59;5069005;28;20032;-69
2023/09/11 04:11:26;;;;;;;26.38;19.48;;;;;;;19.53;100.00;101171.66;5069087;28;20395;-69
2023/09/11 04:13:51;;;;;;;24.17;18.63;;;;;;;19.52;100.00;101164.63;5069053;28;20032;-69
2023/09/11 04:16:19;;;;;;;28.85;19.02;;;;;;;19.47;100.00;101167.25;5069073;28;20025;-69
2023/09/11 04:18:44;;;;;;;34.40;18.55;;;;;;;19.55;100.00;101169.53;5069039;28;20450;-69
2023/09/11 04:21:09;;;;;;;26.23;18.95;;;;;;;19.54;100.00;101167.06;5067911;28;20112;-69
2023/09/11 04:23:35;;;;;;;29.02;19.75;;;;;;;19.56;100.00;101165.75;5069261;28;20498;-69
2023/09/11 04:26:00;;;;;;;27.80;19.67;;;;;;;19.59;100.00;101165.25;5069313;28;20021;-69
2023/09/11 04:28:26;;;;;;;27.85;20.77;;;;;;;19.63;100.00;101166.41;5068011;28;20043;-69
2023/09/11 04:30:52;;;;;;;32.28;23.17;;;;;;;19.65;100.00;101166.97;5068927;28;20032;-69
2023/09/11 04:33:18;;;;;;;31.40;22.27;;;;;;;19.66;100.00;101154.25;5068631;28;20043;-69
2023/09/11 04:35:44;;;;;;;31.05;20.73;;;;;;;19.68;100.00;101155.69;5068718;28;20032;-69
2023/09/11 04:38:09;;;;;;;31.25;22.67;;;;;;;19.73;100.00;101154.09;5068667;28;20077;-69
2023/09/11 04:40:35;;;;;;;27.75;20.40;;;;;;;19.75;100.00;101169.00;5068580;28;20048;-70
2023/09/11 04:43:00;;;;;;;27.48;19.48;;;;;;;19.78;100.00;101159.56;5068696;28;20052;-70
2023/09/11 04:45:25;;;;;;;27.95;17.50;;;;;;;19.81;100.00;101161.81;5067323;28;20043;-69
2023/09/11 04:47:51;;;;;;;26.45;18.80;;;;;;;19.82;100.00;101160.72;5064536;28;20504;-69
2023/09/11 04:50:16;;;;;;;28.65;18.30;;;;;;;19.84;100.00;101161.31;5049808;28;20361;-70
2023/09/11 04:52:42;;;;;;;27.83;20.58;;;;;;;19.83;100.00;101165.06;5068194;28;20063;-69
2023/09/11 04:55:08;;;;;;;25.55;18.77;;;;;;;19.85;100.00;101165.63;5068458;28;20040;-69
2023/09/11 04:57:34;;;;;;;23.85;17.10;;;;;;;19.86;100.00;101167.28;5068657;28;20471;-69
2023/09/11 05:00:00;;;;;;;30.75;19.60;;;;;;;19.88;100.00;101165.94;5068585;28;20021;-69
2023/09/11 05:02:25;;;;;;;25.15;17.20;;;;;;;19.84;100.00;101164.81;5068211;28;20032;-69
2023/09/11 05:04:51;;;;;;;24.58;17.08;;;;;;;19.87;100.00;101168.91;5066596;28;20075;-69
2023/09/11 05:07:16;;;;;;;25.65;17.90;;;;;;;19.86;100.00;101168.09;5054040;28;20075;-69
2023/09/11 05:09:41;;;;;;;29.13;17.88;;;;;;;19.84;100.00;101172.13;5048966;28;20068;-69
2023/09/11 05:12:08;;;;;;;25.48;17.17;;;;;;;19.91;100.00;101170.03;5047559;28;20055;-69
2023/09/11 05:14:33;;;;;;;24.77;15.40;;;;;;;19.89;100.00;101172.19;5049184;28;20441;-69
2023/09/11 05:16:58;;;;;;;23.85;16.77;;;;;;;19.92;100.00;101171.69;5049108;28;20060;-69
2023/09/11 05:19:24;;;;;;;25.55;15.75;;;;;;;19.91;100.00;101168.16;5068216;28;20576;-69
2023/09/11 05:21:49;;;;;;;23.88;15.32;;;;;;;19.92;100.00;101174.41;5066997;28;20438;-69
2023/09/11 05:24:14;;;;;;;25.05;15.60;;;;;;;19.92;100.00;101171.69;5067739;28;20121;-69
2023/09/11 05:26:40;;;;;;;22.27;15.10;;;;;;;19.95;100.00;101176.59;5066128;28;20925;-69
2023/09/11 05:29:05;;;;;;;19.90;15.00;;;;;;;19.97;100.00;101177.16;5054528;28;20040;-69
2023/09/11 05:31:30;;;;;;;24.23;15.00;;;;;;;20.00;100.00;101179.38;5048882;28;20496;-69
2023/09/11 05:33:56;;;;;;;23.20;14.70;;;;;;;19.99;100.00;101176.91;5048925;28;20025;-70
2023/09/11 05:36:21;;;;;;;20.98;13.45;;;;;;;19.99;100.00;101183.16;5049094;28;20025;-70
2023/09/11 05:38:49;;;;;;;25.95;13.82;;;;;;;20.02;100.00;101176.44;5048999;28;20177;-69
2023/09/11 05:41:15;;;;;;;21.50;14.25;;;;;;;20.01;100.00;101174.78;5052369;28;20039;-69
2023/09/11 05:43:41;;;;;;;22.33;14.93;;;;;;;20.07;100.00;101181.91;5052965;28;20119;-69
2023/09/11 05:46:07;;;;;;;22.75;13.77;;;;;;;20.06;100.00;101180.25;5053086;28;20032;-69
2023/09/11 05:48:32;;;;;;;21.52;13.32;;;;;;;20.10;100.00;101184.91;5071750;28;20028;-69
2023/09/11 05:50:57;;;;;;;23.83;13.65;;;;;;;20.12;100.00;101188.19;5071759;28;20028;-69
2023/09/11 05:53:23;;;;;;;20.20;12.80;;;;;;;20.14;100.00;101187.94;5071886;28;20056;-69
2023/09/11 05:55:48;;;;;;;21.00;12.52;;;;;;;20.14;100.00;101190.63;5071898;28;20971;-69
2023/09/11 05:58:14;;;;;;;20.90;13.15;;;;;;;20.17;100.00;101194.72;5071890;28;20036;-69
2023/09/11 06:00:39;;;;;;;21.52;12.75;;;;;;;20.12;100.00;101184.66;5071816;28;20036;-69
2023/09/11 06:03:05;;;;;;;21.67;13.13;;;;;;;20.21;100.00;101193.16;5071478;28;20028;-69
2023/09/11 06:05:32;;;;;;;20.25;11.75;;;;;;;20.22;100.00;101189.38;5070080;28;20028;-69
2023/09/11 06:07:57;;;;;;;20.05;11.65;;;;;;;20.24;100.00;101195.38;5071816;28;20125;-69
2023/09/11 06:10:23;;;;;;;20.85;11.43;;;;;;;20.26;100.00;101196.75;5071391;28;20074;-70
2023/09/11 06:12:48;;;;;;;20.65;11.55;;;;;;;20.25;100.00;101189.72;5071581;28;20040;-69
2023/09/11 06:15:14;;;;;;;17.75;11.68;;;;;;;20.30;100.00;101197.91;5052563;28;20063;-70
2023/09/11 06:17:40;;;;;;;20.73;12.07;;;;;;;20.33;100.00;101199.25;5052239;28;20056;-69
2023/09/11 06:20:09;;;;;;;19.98;12.90;;;;;;;20.38;100.00;101209.34;5051096;28;20044;-70
2023/09/11 06:22:35;;;;;;;20.35;10.20;;;;;;;20.42;100.00;101213.19;5071119;28;20495;-69
2023/09/11 06:25:02;;;;;;;20.33;11.00;;;;;;;20.45;100.00;101207.25;5071511;28;20438;-69
2023/09/11 06:27:27;;;;;;;18.63;10.57;;;;;;;20.45;100.00;101199.94;5071429;28;20028;-70
2023/09/11 06:29:53;;;;;;;22.40;11.93;;;;;;;20.48;100.00;101209.47;5071133;28;20036;-69
2023/09/11 06:32:18;;;;;;;20.42;11.70;;;;;;;20.51;100.00;101208.94;5057461;28;20036;-69
2023/09/11 06:34:44;;;;;;;18.52;10.60;;;;;;;20.52;100.00;101208.69;5050770;28;20045;-69
2023/09/11 06:37:09;;;;;;;21.70;10.95;;;;;;;20.54;100.00;101205.75;5052017;28;20036;-70
2023/09/11 06:39:35;;;;;;;18.63;10.45;;;;;;;20.55;100.00;101205.50;5051722;28;20464;-69
2023/09/11 06:42:00;;;;;;;15.57;9.85;;;;;;;20.57;100.00;101211.50;5065159;28;20382;-69
2023/09/11 06:44:26;;;;;;;19.75;10.55;;;;;;;20.58;100.00;101226.69;5070677;28;20115;-69
2023/09/11 06:46:51;;;;;;;21.42;11.38;;;;;;;20.62;100.00;101218.03;5071057;28;20032;-69
2023/09/11 06:49:16;;;;;;;18.20;12.15;;;;;;;20.60;100.00;101207.47;5069602;28;20071;-69
2023/09/11 06:51:42;;;;;;;19.85;11.43;;;;;;;20.68;100.00;101212.41;5069911;28;20032;-69
2023/09/11 06:54:09;;;;;;;22.67;11.20;;;;;;;20.70;100.00;101218.41;5053026;28;20039;-69
2023/09/11 06:56:35;;;;;;;21.38;10.88;;;;;;;20.75;100.00;101206.78;5057661;28;20500;-67
2023/09/11 06:59:00;;;;;;;17.55;11.15;;;;;;;20.77;100.00;101199.22;5051599;28;20116;-70
2023/09/11 07:01:26;;;;;;;18.60;10.85;;;;;;;20.81;100.00;101196.81;5051267;28;20057;-70
2023/09/11 07:03:51;;;;;;;18.60;10.85;;;;;;;20.82;100.00;101195.75;5051733;28;20061;-72
2023/09/11 07:06:16;;;;;;;19.83;10.73;;;;;;;20.90;100.00;101214.25;5051129;28;20056;-71
2023/09/11 07:08:42;;;;;;;17.92;9.98;;;;;;;20.94;100.00;101208.06;5052247;28;20566;-69
2023/09/11 07:11:07;;;;;;;16.85;11.35;;;;;;;20.98;100.00;101205.66;5050150;28;20033;-70
2023/09/11 07:13:32;;;;;;;16.95;10.60;;;;;;;21.06;100.00;101212.50;5052083;28;20166;-70
2023/09/11 07:16:00;;;;;;;15.27;9.88;;;;;;;21.09;100.00;101206.56;5051235;28;20428;-70
2023/09/11 07:18:26;;;;;;;19.38;10.35;;;;;;;21.11;100.00;101210.66;5049812;28;20393;-70
2023/09/11 07:20:52;;;;;;;13.93;9.18;;;;;;;21.15;100.00;101202.81;5052363;28;20033;-70
2023/09/11 07:23:19;;;;;;;19.48;11.27;;;;;;;21.26;100.00;101206.44;5051546;28;20033;-70
2023/09/11 07:25:46;;;;;;;23.75;10.75;;;;;;;21.33;100.00;101207.84;5051622;28;20373;-70
2023/09/11 07:28:13;;;;;;;21.67;10.10;;;;;;;21.42;100.00;101202.78;5053318;28;20025;-70
2023/09/11 07:30:39;;;;;;;15.90;9.73;;;;;;;21.46;100.00;101190.34;5051582;28;20036;-69
2023/09/11 07:33:04;;;;;;;17.50;10.20;;;;;;;21.56;100.00;101201.28;5051970;28;20025;-70
2023/09/11 07:35:30;;;;;;;16.60;9.95;;;;;;;21.62;100.00;101199.41;5052177;28;20124;-68
2023/09/11 07:37:55;;;;;;;20.95;11.10;;;;;;;21.68;100.00;101195.63;5051979;28;20120;-70
2023/09/11 07:40:20;;;;;;;17.38;9.52;;;;;;;21.78;100.00;101206.56;5051308;28;20415;-70
2023/09/11 07:42:46;;;;;;;19.10;10.75;;;;;;;21.81;100.00;101200.59;5051514;28;20076;-70
2023/09/11 07:45:11;;;;;;;14.15;9.40;;;;;;;21.88;100.00;101206.59;5051203;28;20031;-70
2023/09/11 07:47:36;;;;;;;20.17;11.38;;;;;;;21.97;100.00;101209.63;5051193;28;20040;-70
2023/09/11 07:50:02;;;;;;;19.08;10.13;;;;;;;22.03;100.00;101211.31;5051988;28;20033;-70
2023/09/11 07:52:27;;;;;;;19.63;9.85;;;;;;;22.11;100.00;101204.53;5050695;28;20029;-70
2023/09/11 07:54:52;;;;;;;17.73;10.48;;;;;;;22.24;100.00;101206.81;5051486;28;20064;-70
2023/09/11 07:57:18;;;;;;;18.83;11.73;;;;;;;22.31;100.00;101209.25;5051613;28;20083;-70
2023/09/11 07:59:43;;;;;;;18.83;11.55;;;;;;;22.38;100.00;101211.75;5051600;28;20036;-70
2023/09/11 08:02:09;;;;;;;19.20;10.70;;;;;;;22.47;100.00;101202.78;5050741;28;20476;-70
2023/09/11 08:04:35;;;;;;;20.58;10.25;;;;;;;22.57;100.00;101210.16;5051500;28;20048;-70
2023/09/11 08:07:01;;;;;;;22.33;12.30;;;;;;;22.61;100.00;101227.59;5051017;28;20095;-70
2023/09/11 08:09:26;;;;;;;20.83;12.52;;;;;;;22.71;100.00;101224.03;5051146;28;20526;-70
2023/09/11 08:11:52;;;;;;;20.20;12.52;;;;;;;22.73;100.00;101213.72;5050910;28;20031;-70
2023/09/11 08:14:17;;;;;;;23.13;11.05;;;;;;;22.85;100.00;101225.19;5051127;28;20025;-70
2023/09/11 08:16:43;;;;;;;22.08;13.52;;;;;;;22.93;100.00;101242.88;5049547;28;20032;-70
2023/09/11 08:19:09;;;;;;;18.77;11.73;;;;;;;23.13;100.00;101240.22;5051157;28;20097;-70
2023/09/11 08:21:34;;;;;;;20.58;12.98;;;;;;;23.49;100.00;101233.94;5050324;28;20504;-70
2023/09/11 08:24:00;;;;;;;22.70;12.45;;;;;;;24.04;98.19;101234.91;5050214;28;20032;-72
2023/09/11 08:26:25;;;;;;;21.13;12.90;;;;;;;24.21;96.67;101246.31;5032623;28;21440;-71
2023/09/11 08:28:50;;;;;;;21.15;12.75;;;;;;;24.39;95.13;101239.44;5049404;28;20044;-69
2023/09/11 08:31:16;;;;;;;22.88;13.50;;;;;;;24.47;94.99;101235.31;5049105;28;20021;-70
2023/09/11 08:33:41;;;;;;;19.50;12.73;;;;;;;24.25;93.85;101232.94;5050970;28;20028;-69
2023/09/11 08:36:08;;;;;;;21.23;11.75;;;;;;;24.07;95.86;101231.63;5067952;28;20119;-70
2023/09/11 08:38:33;;;;;;;19.08;12.40;;;;;;;24.02;96.94;101237.91;5069052;28;20514;-70
2023/09/11 08:40:58;;;;;;;21.30;12.63;;;;;;;24.04;97.41;101237.66;5068696;28;20028;-70
2023/09/11 08:43:24;;;;;;;23.20;13.23;;;;;;;24.00;97.70;101240.13;5051046;28;20049;-69
2023/09/11 08:45:50;;;;;;;20.52;12.70;;;;;;;24.01;97.99;101232.75;5049595;28;20037;-70
2023/09/11 08:48:16;;;;;;;19.05;12.18;;;;;;;24.01;97.19;101243.66;5049389;28;20032;-70
2023/09/11 08:50:50;;;;;;;19.83;12.77;;;;;;;24.01;97.75;101233.56;5049736;28;20452;-70
2023/09/11 08:53:18;;;;;;;20.80;12.98;;;;;;;24.00;97.14;101237.41;5068602;28;20115;-70
2023/09/11 08:55:46;;;;;;;20.85;13.25;;;;;;;24.03;98.62;101228.66;5068783;28;20032;-69
2023/09/11 08:58:15;;;;;;;19.55;14.38;;;;;;;24.08;96.67;101238.75;5049592;28;20033;-70
2023/09/11 09:00:41;;;;;;;23.20;12.40;;;;;;;24.11;97.52;101237.38;5068668;28;20052;-70
2023/09/11 09:03:08;;;;;;;19.50;12.40;;;;;;;24.14;96.19;101237.63;5068563;28;20438;-70
2023/09/11 09:05:34;;;;;;;23.20;13.30;;;;;;;24.22;96.92;101241.69;5068342;28;20025;-70
2023/09/11 09:08:04;;;;;;;23.20;12.45;;;;;;;24.36;97.88;101248.16;5068320;28;20058;-70
2023/09/11 09:10:29;;;;;;;20.85;13.32;;;;;;;24.34;94.84;101241.34;5067792;28;20035;-69
2023/09/11 09:12:55;;;;;;;20.92;12.18;;;;;;;24.43;95.60;101243.22;5049356;28;20025;-69
2023/09/11 09:15:21;;;;;;;20.38;12.45;;;;;;;24.51;96.08;101239.13;5051550;28;20053;-70
2023/09/11 09:17:48;;;;;;;22.75;13.52;;;;;;;24.54;94.95;101230.38;5055478;28;20037;-69
2023/09/11 09:20:13;;;;;;;22.13;12.48;;;;;;;24.59;94.21;101233.06;5053596;28;20051;-70
2023/09/11 09:23:12;;;;;;;23.83;12.50;;;;;;;24.71;95.56;101236.28;5053578;28;20158;-70
2023/09/11 09:25:38;;;;;;;18.90;11.65;;;;;;;24.74;94.28;101229.44;5020012;28;20044;-69
2023/09/11 09:28:04;;;;;;;19.83;12.50;;;;;;;24.89;93.42;101237.53;5072327;28;20075;-70
2023/09/11 09:30:31;;;;;;;21.35;12.40;;;;;;;24.98;92.73;101231.47;5071017;28;20056;-70
2023/09/11 09:32:57;;;;;;;22.77;13.07;;;;;;;25.06;92.16;101234.41;5072214;28;20036;-69
2023/09/11 09:35:29;;;;;;;20.48;12.77;;;;;;;25.07;90.34;101230.59;5072375;28;20029;-70
2023/09/11 09:37:55;;;;;;;;;;;;;;;25.24;94.54;101234.84;5072844;28;20044;-69
2023/09/11 09:40:40;;;;;;;21.65;12.18;;;;;;;25.23;92.26;101230.47;5072235;28;20283;-69
2023/09/11 09:43:08;;;;;;;19.85;12.13;;;;;;;25.28;90.00;101234.00;5072045;28;20102;-70
2023/09/11 09:45:39;;;;;;;18.08;11.95;;;;;;;25.40;90.40;101243.72;5071912;28;20454;-69
2023/09/11 09:48:22;;;;;;;23.40;11.35;;;;;;;25.54;91.49;101239.19;5071790;28;20024;-70
2023/09/11 09:51:02;;;;;;;21.02;12.48;;;;;;;25.56;89.18;101239.72;5065237;28;20507;-69
2023/09/11 09:53:35;;;;;;;21.10;12.48;;;;;;;25.58;89.30;101241.06;5070312;28;20420;-70
2023/09/11 09:56:07;;;;;;;18.42;9.43;;;;;;;25.74;90.01;101233.53;5072567;28;20036;-70
2023/09/11 09:58:52;;;;;;;;;;;;;;;25.90;93.02;101236.94;5068092;28;20484;-69
2023/09/11 10:01:20;;;;;;;16.45;10.48;;;;;;;25.95;85.98;101225.97;5051919;28;19908;-69
2023/09/11 10:03:45;;;;;;;21.52;11.15;;;;;;;26.00;85.12;101230.56;5071756;28;20090;-69
2023/09/11 10:06:21;;;;;;;17.25;11.40;;;;;;;26.01;85.04;101222.06;5071651;28;20028;-69
2023/09/11 10:09:02;;;;;;;15.82;10.30;;;;;;;26.04;84.89;101220.66;5071814;28;20345;-69
2023/09/11 10:11:29;;;;;;;17.77;9.68;;;;;;;26.12;86.89;101225.50;5052405;28;20029;-69
2023/09/11 10:14:02;;;;;;;18.17;9.25;;;;;;;26.21;85.36;101228.38;5052426;28;20033;-69
2023/09/11 10:16:28;;;;;;;19.30;9.70;;;;;;;26.23;83.86;101229.72;5071289;28;20479;-70
2023/09/11 10:18:55;;;;;;;22.55;10.13;;;;;;;26.32;85.46;101223.59;5071742;28;20050;-69
2023/09/11 10:21:21;;;;;;;19.17;10.02;;;;;;;26.37;84.10;101223.53;5069862;28;20062;-69
2023/09/11 10:23:47;;;;;;;29.55;10.88;;;;;;;26.47;86.79;101225.31;5071540;28;20028;-69
2023/09/11 10:26:42;;;;;;;22.30;11.40;;;;;;;26.58;86.18;101226.84;5071355;28;20094;-70
2023/09/11 10:29:11;;;;;;;18.60;10.63;;;;;;;26.62;84.91;101225.97;5048244;28;20072;-69
2023/09/11 10:31:45;;;;;;;18.58;10.77;;;;;;;26.58;81.33;101222.16;5050587;28;20040;-69
2023/09/11 10:34:11;;;;;;;20.75;9.70;;;;;;;26.59;80.82;101217.50;5070886;28;20021;-69
2023/09/11 10:36:40;;;;;;;20.85;10.25;;;;;;;26.66;81.14;101212.47;5071182;28;20037;-69
2023/09/11 10:39:09;;;;;;;17.80;9.63;;;;;;;26.69;80.96;101211.88;5071037;28;20424;-69
2023/09/11 10:41:36;;;;;;;16.45;8.35;;;;;;;26.74;80.58;101214.53;5070935;28;20052;-70
2023/09/11 10:44:02;;;;;;;16.55;9.70;;;;;;;26.78;79.52;101217.53;5070976;28;20361;-70
2023/09/11 10:46:39;;;;;;;18.23;9.73;;;;;;;26.86;82.00;101216.84;5071089;28;20025;-70
2023/09/11 10:49:16;;;;;;;16.05;9.30;;;;;;;26.96;80.53;101211.22;5071037;28;20040;-69
2023/09/11 10:51:42;;;;;;;15.93;9.23;;;;;;;26.96;77.38;101208.47;5070616;28;20115;-70
2023/09/11 10:54:11;;;;;;;14.07;8.68;;;;;;;26.99;78.15;101220.75;5070942;28;20024;-69
2023/09/11 10:56:37;;;;;;;13.07;8.02;;;;;;;27.07;78.84;101215.41;5068356;28;20027;-70
2023/09/11 10:59:03;;;;;;;14.80;8.40;;;;;;;27.08;77.64;101222.50;5068817;28;20063;-69
2023/09/11 11:01:35;;;;;;;13.95;7.78;;;;;;;27.15;76.64;101207.63;5070302;28;20063;-71
2023/09/11 11:04:01;;;;;;;;;;;;;;;27.20;79.35;101211.13;5069011;28;20025;-71